sensor_id;sensor_type;location;lat;lon;timestamp;P1;durP1;ratioP1;P2;durP2;ratioP2
53867;SDS011;41577;47.470;19.080;2022-08-21T00:00:08;1.42;;;1.20;;
53867;SDS011;41577;47.470;19.080;2022-08-21T00:00:26;4.22;;;1.30;;
53867;SDS011;41577;47.470;19.080;2022-08-21T00:00:41;4.22;;;1.48;;
53867;SDS011;41577;47.470;19.080;2022-08-21T00:00:55;1.92;;;1.48;;
53867;SDS011;41577;47.470;19.080;2022-08-21T00:01:11;1.67;;;1.40;;
53867;SDS011;41577;47.470;19.080;2022-08-21T00:01:29;1.50;;;1.40;;
53867;SDS011;41577;47.470;19.080;2022-08-21T00:01:43;1.92;;;1.60;;
53867;SDS011;41577;47.470;19.080;2022-08-21T00:01:59;1.95;;;1.50;;
53867;SDS011;41577;47.470;19.080;2022-08-21T00:02:13;1.70;;;1.20;;
53867;SDS011;41577;47.470;19.080;2022-08-21T00:02:28;4.45;;;1.55;;
53867;SDS011;41577;47.470;19.080;2022-08-21T00:02:45;5.35;;;1.65;;
53867;SDS011;41577;47.470;19.080;2022-08-21T00:03:00;2.95;;;1.65;;
53867;SDS011;41577;47.470;19.080;2022-08-21T00:03:18;1.98;;;1.77;;
53867;SDS011;41577;47.470;19.080;2022-08-21T00:03:33;2.85;;;1.40;;
53867;SDS011;41577;47.470;19.080;2022-08-21T00:03:48;3.90;;;1.30;;
53867;SDS011;41577;47.470;19.080;2022-08-21T00:04:04;4.05;;;1.20;;
53867;SDS011;41577;47.470;19.080;2022-08-21T00:04:18;2.78;;;1.00;;
53867;SDS011;41577;47.470;19.080;2022-08-21T00:04:33;1.35;;;1.25;;
53867;SDS011;41577;47.470;19.080;2022-08-21T00:04:47;3.30;;;1.60;;
53867;SDS011;41577;47.470;19.080;2022-08-21T00:05:03;3.58;;;1.48;;
53867;SDS011;41577;47.470;19.080;2022-08-21T00:05:19;2.40;;;1.35;;
53867;SDS011;41577;47.470;19.080;2022-08-21T00:05:36;2.88;;;1.35;;
53867;SDS011;41577;47.470;19.080;2022-08-21T00:05:54;4.00;;;1.50;;
53867;SDS011;41577;47.470;19.080;2022-08-21T00:06:08;3.42;;;1.83;;
53867;SDS011;41577;47.470;19.080;2022-08-21T00:06:23;1.95;;;1.65;;
53867;SDS011;41577;47.470;19.080;2022-08-21T00:06:40;1.95;;;1.65;;
53867;SDS011;41577;47.470;19.080;2022-08-21T00:06:55;6.15;;;1.45;;
53867;SDS011;41577;47.470;19.080;2022-08-21T00:07:10;6.00;;;1.20;;
53867;SDS011;41577;47.470;19.080;2022-08-21T00:07:24;2.28;;;1.35;;
53867;SDS011;41577;47.470;19.080;2022-08-21T00:07:39;3.15;;;1.60;;
53867;SDS011;41577;47.470;19.080;2022-08-21T00:07:54;3.00;;;1.55;;
53867;SDS011;41577;47.470;19.080;2022-08-21T00:08:10;2.47;;;1.48;;
53867;SDS011;41577;47.470;19.080;2022-08-21T00:08:24;2.33;;;1.45;;
53867;SDS011;41577;47.470;19.080;2022-08-21T00:08:39;1.58;;;1.33;;
53867;SDS011;41577;47.470;19.080;2022-08-21T00:08:54;2.13;;;1.35;;
53867;SDS011;41577;47.470;19.080;2022-08-21T00:09:08;2.90;;;1.33;;
53867;SDS011;41577;47.470;19.080;2022-08-21T00:09:24;2.85;;;1.17;;
53867;SDS011;41577;47.470;19.080;2022-08-21T00:09:38;2.83;;;1.15;;
53867;SDS011;41577;47.470;19.080;2022-08-21T00:09:54;2.30;;;1.27;;
53867;SDS011;41577;47.470;19.080;2022-08-21T00:10:10;1.88;;;1.25;;
53867;SDS011;41577;47.470;19.080;2022-08-21T00:10:25;1.35;;;1.20;;
53867;SDS011;41577;47.470;19.080;2022-08-21T00:10:40;1.48;;;1.23;;
53867;SDS011;41577;47.470;19.080;2022-08-21T00:10:56;2.38;;;1.40;;
53867;SDS011;41577;47.470;19.080;2022-08-21T00:11:11;4.65;;;1.70;;
53867;SDS011;41577;47.470;19.080;2022-08-21T00:11:26;3.35;;;1.50;;
53867;SDS011;41577;47.470;19.080;2022-08-21T00:11:41;2.22;;;1.35;;
53867;SDS011;41577;47.470;19.080;2022-08-21T00:11:55;3.72;;;1.55;;
53867;SDS011;41577;47.470;19.080;2022-08-21T00:12:09;3.17;;;1.50;;
53867;SDS011;41577;47.470;19.080;2022-08-21T00:12:23;1.52;;;1.42;;
53867;SDS011;41577;47.470;19.080;2022-08-21T00:12:38;1.33;;;1.23;;
53867;SDS011;41577;47.470;19.080;2022-08-21T00:12:53;1.02;;;1.00;;
53867;SDS011;41577;47.470;19.080;2022-08-21T00:13:08;1.17;;;1.05;;
53867;SDS011;41577;47.470;19.080;2022-08-21T00:13:23;1.70;;;1.35;;
53867;SDS011;41577;47.470;19.080;2022-08-21T00:13:39;1.50;;;1.40;;
53867;SDS011;41577;47.470;19.080;2022-08-21T00:13:54;7.10;;;1.50;;
53867;SDS011;41577;47.470;19.080;2022-08-21T00:14:09;8.60;;;1.60;;
53867;SDS011;41577;47.470;19.080;2022-08-21T00:14:23;2.70;;;1.65;;
53867;SDS011;41577;47.470;19.080;2022-08-21T00:14:38;1.75;;;1.50;;
53867;SDS011;41577;47.470;19.080;2022-08-21T00:14:54;2.53;;;1.30;;
53867;SDS011;41577;47.470;19.080;2022-08-21T00:15:11;9.35;;;1.27;;
53867;SDS011;41577;47.470;19.080;2022-08-21T00:15:28;9.55;;;1.30;;
53867;SDS011;41577;47.470;19.080;2022-08-21T00:15:46;2.00;;;1.30;;
53867;SDS011;41577;47.470;19.080;2022-08-21T00:16:02;2.30;;;1.40;;
53867;SDS011;41577;47.470;19.080;2022-08-21T00:16:18;4.68;;;1.70;;
53867;SDS011;41577;47.470;19.080;2022-08-21T00:16:32;5.55;;;1.90;;
53867;SDS011;41577;47.470;19.080;2022-08-21T00:16:48;3.78;;;1.55;;
53867;SDS011;41577;47.470;19.080;2022-08-21T00:17:02;2.53;;;1.23;;
53867;SDS011;41577;47.470;19.080;2022-08-21T00:17:16;4.28;;;1.52;;
53867;SDS011;41577;47.470;19.080;2022-08-21T00:17:31;4.38;;;1.58;;
53867;SDS011;41577;47.470;19.080;2022-08-21T00:17:45;1.50;;;1.40;;
53867;SDS011;41577;47.470;19.080;2022-08-21T00:18:01;1.50;;;1.40;;
53867;SDS011;41577;47.470;19.080;2022-08-21T00:18:15;1.50;;;1.40;;
53867;SDS011;41577;47.470;19.080;2022-08-21T00:18:30;1.55;;;1.33;;
53867;SDS011;41577;47.470;19.080;2022-08-21T00:18:45;2.10;;;1.30;;
53867;SDS011;41577;47.470;19.080;2022-08-21T00:18:59;2.30;;;1.30;;
53867;SDS011;41577;47.470;19.080;2022-08-21T00:19:15;1.67;;;1.30;;
53867;SDS011;41577;47.470;19.080;2022-08-21T00:19:29;2.28;;;1.40;;
53867;SDS011;41577;47.470;19.080;2022-08-21T00:19:44;2.17;;;1.40;;
53867;SDS011;41577;47.470;19.080;2022-08-21T00:20:00;1.85;;;1.40;;
53867;SDS011;41577;47.470;19.080;2022-08-21T00:20:15;1.55;;;1.38;;
53867;SDS011;41577;47.470;19.080;2022-08-21T00:20:31;1.25;;;1.15;;
53867;SDS011;41577;47.470;19.080;2022-08-21T00:20:47;1.90;;;1.20;;
53867;SDS011;41577;47.470;19.080;2022-08-21T00:21:01;1.60;;;1.10;;
53867;SDS011;41577;47.470;19.080;2022-08-21T00:21:16;1.75;;;1.42;;
53867;SDS011;41577;47.470;19.080;2022-08-21T00:21:30;2.40;;;1.50;;
53867;SDS011;41577;47.470;19.080;2022-08-21T00:21:46;1.58;;;1.25;;
53867;SDS011;41577;47.470;19.080;2022-08-21T00:22:00;1.40;;;1.17;;
53867;SDS011;41577;47.470;19.080;2022-08-21T00:22:16;1.42;;;1.27;;
53867;SDS011;41577;47.470;19.080;2022-08-21T00:22:30;1.40;;;1.30;;
53867;SDS011;41577;47.470;19.080;2022-08-21T00:22:45;1.10;;;1.10;;
53867;SDS011;41577;47.470;19.080;2022-08-21T00:23:00;1.48;;;1.23;;
53867;SDS011;41577;47.470;19.080;2022-08-21T00:23:14;1.80;;;1.23;;
53867;SDS011;41577;47.470;19.080;2022-08-21T00:23:28;2.13;;;1.17;;
53867;SDS011;41577;47.470;19.080;2022-08-21T00:23:44;2.33;;;1.20;;
53867;SDS011;41577;47.470;19.080;2022-08-21T00:24:00;2.28;;;1.15;;
53867;SDS011;41577;47.470;19.080;2022-08-21T00:24:14;1.60;;;1.23;;
53867;SDS011;41577;47.470;19.080;2022-08-21T00:24:28;1.52;;;1.20;;
53867;SDS011;41577;47.470;19.080;2022-08-21T00:24:42;1.30;;;1.02;;
53867;SDS011;41577;47.470;19.080;2022-08-21T00:24:56;1.48;;;1.02;;
53867;SDS011;41577;47.470;19.080;2022-08-21T00:25:12;1.73;;;1.17;;
53867;SDS011;41577;47.470;19.080;2022-08-21T00:25:28;1.52;;;1.30;;
53867;SDS011;41577;47.470;19.080;2022-08-21T00:25:42;2.92;;;1.48;;
53867;SDS011;41577;47.470;19.080;2022-08-21T00:25:57;3.20;;;1.48;;
53867;SDS011;41577;47.470;19.080;2022-08-21T00:26:13;1.73;;;1.30;;
53867;SDS011;41577;47.470;19.080;2022-08-21T00:26:28;2.00;;;1.42;;
53867;SDS011;41577;47.470;19.080;2022-08-21T00:26:43;1.83;;;1.38;;
53867;SDS011;41577;47.470;19.080;2022-08-21T00:26:57;1.30;;;1.08;;
53867;SDS011;41577;47.470;19.080;2022-08-21T00:27:12;1.30;;;1.10;;
53867;SDS011;41577;47.470;19.080;2022-08-21T00:27:26;2.30;;;1.38;;
53867;SDS011;41577;47.470;19.080;2022-08-21T00:27:40;2.00;;;1.33;;
53867;SDS011;41577;47.470;19.080;2022-08-21T00:27:55;1.70;;;1.40;;
53867;SDS011;41577;47.470;19.080;2022-08-21T00:28:11;3.28;;;1.67;;
53867;SDS011;41577;47.470;19.080;2022-08-21T00:28:26;3.00;;;1.55;;
53867;SDS011;41577;47.470;19.080;2022-08-21T00:28:40;2.55;;;1.40;;
53867;SDS011;41577;47.470;19.080;2022-08-21T00:28:54;2.58;;;1.52;;
53867;SDS011;41577;47.470;19.080;2022-08-21T00:29:09;2.05;;;1.58;;
53867;SDS011;41577;47.470;19.080;2022-08-21T00:29:22;1.70;;;1.38;;
53867;SDS011;41577;47.470;19.080;2022-08-21T00:29:38;1.77;;;1.30;;
53867;SDS011;41577;47.470;19.080;2022-08-21T00:29:54;2.00;;;1.30;;
53867;SDS011;41577;47.470;19.080;2022-08-21T00:30:11;3.60;;;1.50;;
53867;SDS011;41577;47.470;19.080;2022-08-21T00:30:27;4.03;;;1.88;;
53867;SDS011;41577;47.470;19.080;2022-08-21T00:30:42;1.65;;;1.50;;
53867;SDS011;41577;47.470;19.080;2022-08-21T00:30:57;1.50;;;1.40;;
53867;SDS011;41577;47.470;19.080;2022-08-21T00:31:12;5.50;;;1.52;;
53867;SDS011;41577;47.470;19.080;2022-08-21T00:31:27;5.75;;;1.40;;
53867;SDS011;41577;47.470;19.080;2022-08-21T00:31:42;2.05;;;1.38;;
53867;SDS011;41577;47.470;19.080;2022-08-21T00:31:56;2.40;;;1.35;;
53867;SDS011;41577;47.470;19.080;2022-08-21T00:32:12;2.45;;;1.30;;
53867;SDS011;41577;47.470;19.080;2022-08-21T00:32:26;1.70;;;1.27;;
53867;SDS011;41577;47.470;19.080;2022-08-21T00:32:41;1.50;;;1.40;;
53867;SDS011;41577;47.470;19.080;2022-08-21T00:33:01;1.73;;;1.63;;
53867;SDS011;41577;47.470;19.080;2022-08-21T00:33:16;1.80;;;1.60;;
53867;SDS011;41577;47.470;19.080;2022-08-21T00:33:31;2.40;;;1.55;;
53867;SDS011;41577;47.470;19.080;2022-08-21T00:33:46;2.03;;;1.35;;
53867;SDS011;41577;47.470;19.080;2022-08-21T00:34:00;1.88;;;1.35;;
53867;SDS011;41577;47.470;19.080;2022-08-21T00:34:15;1.77;;;1.35;;
53867;SDS011;41577;47.470;19.080;2022-08-21T00:34:29;1.33;;;1.23;;
53867;SDS011;41577;47.470;19.080;2022-08-21T00:34:44;1.65;;;1.27;;
53867;SDS011;41577;47.470;19.080;2022-08-21T00:34:58;1.88;;;1.38;;
53867;SDS011;41577;47.470;19.080;2022-08-21T00:35:13;1.58;;;1.42;;
53867;SDS011;41577;47.470;19.080;2022-08-21T00:35:33;1.52;;;1.42;;
53867;SDS011;41577;47.470;19.080;2022-08-21T00:35:48;1.60;;;1.30;;
53867;SDS011;41577;47.470;19.080;2022-08-21T00:36:02;1.80;;;1.30;;
53867;SDS011;41577;47.470;19.080;2022-08-21T00:36:17;1.67;;;1.30;;
53867;SDS011;41577;47.470;19.080;2022-08-21T00:36:32;1.42;;;1.30;;
53867;SDS011;41577;47.470;19.080;2022-08-21T00:36:48;1.65;;;1.45;;
53867;SDS011;41577;47.470;19.080;2022-08-21T00:37:02;2.63;;;1.70;;
53867;SDS011;41577;47.470;19.080;2022-08-21T00:37:17;2.08;;;1.45;;
53867;SDS011;41577;47.470;19.080;2022-08-21T00:37:31;1.67;;;1.33;;
53867;SDS011;41577;47.470;19.080;2022-08-21T00:37:45;2.88;;;1.40;;
53867;SDS011;41577;47.470;19.080;2022-08-21T00:38:00;3.00;;;1.50;;
53867;SDS011;41577;47.470;19.080;2022-08-21T00:38:17;2.45;;;1.60;;
53867;SDS011;41577;47.470;19.080;2022-08-21T00:38:32;2.45;;;1.73;;
53867;SDS011;41577;47.470;19.080;2022-08-21T00:38:47;2.83;;;1.55;;
53867;SDS011;41577;47.470;19.080;2022-08-21T00:39:03;4.22;;;1.58;;
53867;SDS011;41577;47.470;19.080;2022-08-21T00:39:17;3.15;;;1.65;;
53867;SDS011;41577;47.470;19.080;2022-08-21T00:39:31;1.70;;;1.52;;
53867;SDS011;41577;47.470;19.080;2022-08-21T00:39:46;2.30;;;1.50;;
53867;SDS011;41577;47.470;19.080;2022-08-21T00:40:01;2.95;;;1.70;;
53867;SDS011;41577;47.470;19.080;2022-08-21T00:40:18;2.35;;;1.65;;
53867;SDS011;41577;47.470;19.080;2022-08-21T00:40:35;1.65;;;1.52;;
53867;SDS011;41577;47.470;19.080;2022-08-21T00:40:53;2.00;;;1.73;;
53867;SDS011;41577;47.470;19.080;2022-08-21T00:41:11;1.38;;;1.38;;
53867;SDS011;41577;47.470;19.080;2022-08-21T00:41:25;1.65;;;1.55;;
53867;SDS011;41577;47.470;19.080;2022-08-21T00:41:42;2.92;;;1.92;;
53867;SDS011;41577;47.470;19.080;2022-08-21T00:41:57;3.30;;;1.83;;
53867;SDS011;41577;47.470;19.080;2022-08-21T00:42:12;2.53;;;1.60;;
53867;SDS011;41577;47.470;19.080;2022-08-21T00:42:28;7.25;;;1.52;;
53867;SDS011;41577;47.470;19.080;2022-08-21T00:42:44;7.32;;;1.70;;
53867;SDS011;41577;47.470;19.080;2022-08-21T00:42:58;2.10;;;1.73;;
53867;SDS011;41577;47.470;19.080;2022-08-21T00:43:16;1.73;;;1.60;;
53867;SDS011;41577;47.470;19.080;2022-08-21T00:43:32;1.88;;;1.50;;
53867;SDS011;41577;47.470;19.080;2022-08-21T00:43:48;1.67;;;1.50;;
53867;SDS011;41577;47.470;19.080;2022-08-21T00:44:05;2.22;;;1.60;;
53867;SDS011;41577;47.470;19.080;2022-08-21T00:44:21;4.60;;;1.80;;
53867;SDS011;41577;47.470;19.080;2022-08-21T00:44:35;3.72;;;1.55;;
53867;SDS011;41577;47.470;19.080;2022-08-21T00:44:50;1.20;;;1.10;;
53867;SDS011;41577;47.470;19.080;2022-08-21T00:45:05;1.00;;;1.00;;
53867;SDS011;41577;47.470;19.080;2022-08-21T00:45:20;2.25;;;1.20;;
53867;SDS011;41577;47.470;19.080;2022-08-21T00:45:35;3.08;;;1.20;;
53867;SDS011;41577;47.470;19.080;2022-08-21T00:45:50;2.33;;;1.30;;
53867;SDS011;41577;47.470;19.080;2022-08-21T00:46:06;1.90;;;1.48;;
53867;SDS011;41577;47.470;19.080;2022-08-21T00:46:21;2.03;;;1.50;;
53867;SDS011;41577;47.470;19.080;2022-08-21T00:46:37;2.80;;;1.48;;
53867;SDS011;41577;47.470;19.080;2022-08-21T00:46:52;2.53;;;1.48;;
53867;SDS011;41577;47.470;19.080;2022-08-21T00:47:07;1.75;;;1.40;;
53867;SDS011;41577;47.470;19.080;2022-08-21T00:47:21;1.58;;;1.40;;
53867;SDS011;41577;47.470;19.080;2022-08-21T00:47:35;1.73;;;1.30;;
53867;SDS011;41577;47.470;19.080;2022-08-21T00:47:50;1.83;;;1.40;;
53867;SDS011;41577;47.470;19.080;2022-08-21T00:48:05;1.85;;;1.58;;
53867;SDS011;41577;47.470;19.080;2022-08-21T00:48:20;3.00;;;1.40;;
53867;SDS011;41577;47.470;19.080;2022-08-21T00:48:35;3.05;;;1.60;;
53867;SDS011;41577;47.470;19.080;2022-08-21T00:48:49;2.60;;;1.55;;
53867;SDS011;41577;47.470;19.080;2022-08-21T00:49:03;3.05;;;1.33;;
53867;SDS011;41577;47.470;19.080;2022-08-21T00:49:18;2.60;;;1.30;;
53867;SDS011;41577;47.470;19.080;2022-08-21T00:49:33;1.90;;;1.20;;
53867;SDS011;41577;47.470;19.080;2022-08-21T00:49:47;1.60;;;1.30;;
53867;SDS011;41577;47.470;19.080;2022-08-21T00:50:03;1.50;;;1.40;;
53867;SDS011;41577;47.470;19.080;2022-08-21T00:50:19;2.30;;;1.63;;
53867;SDS011;41577;47.470;19.080;2022-08-21T00:50:35;2.58;;;1.60;;
53867;SDS011;41577;47.470;19.080;2022-08-21T00:50:54;1.98;;;1.40;;
53867;SDS011;41577;47.470;19.080;2022-08-21T00:51:13;2.35;;;1.40;;
53867;SDS011;41577;47.470;19.080;2022-08-21T00:51:33;1.33;;;1.23;;
53867;SDS011;41577;47.470;19.080;2022-08-21T00:51:54;4.32;;;1.58;;
53867;SDS011;41577;47.470;19.080;2022-08-21T00:52:13;1.55;;;1.40;;
53867;SDS011;41577;47.470;19.080;2022-08-21T00:52:32;2.55;;;1.48;;
53867;SDS011;41577;47.470;19.080;2022-08-21T00:52:49;3.10;;;1.88;;
53867;SDS011;41577;47.470;19.080;2022-08-21T00:53:04;2.83;;;1.73;;
53867;SDS011;41577;47.470;19.080;2022-08-21T00:53:21;1.75;;;1.42;;
53867;SDS011;41577;47.470;19.080;2022-08-21T00:53:37;1.23;;;1.20;;
53867;SDS011;41577;47.470;19.080;2022-08-21T00:53:55;1.58;;;1.48;;
53867;SDS011;41577;47.470;19.080;2022-08-21T00:54:14;2.80;;;1.60;;
53867;SDS011;41577;47.470;19.080;2022-08-21T00:54:30;2.35;;;1.30;;
53867;SDS011;41577;47.470;19.080;2022-08-21T00:54:45;1.30;;;1.20;;
53867;SDS011;41577;47.470;19.080;2022-08-21T00:55:00;1.20;;;1.20;;
53867;SDS011;41577;47.470;19.080;2022-08-21T00:55:33;1.70;;;1.33;;
53867;SDS011;41577;47.470;19.080;2022-08-21T00:55:50;1.35;;;1.35;;
53867;SDS011;41577;47.470;19.080;2022-08-21T00:56:09;1.20;;;1.10;;
53867;SDS011;41577;47.470;19.080;2022-08-21T00:56:25;1.45;;;1.10;;
53867;SDS011;41577;47.470;19.080;2022-08-21T00:56:40;1.23;;;1.13;;
53867;SDS011;41577;47.470;19.080;2022-08-21T00:56:55;1.48;;;1.38;;
53867;SDS011;41577;47.470;19.080;2022-08-21T00:57:14;2.40;;;1.52;;
53867;SDS011;41577;47.470;19.080;2022-08-21T00:57:32;1.92;;;1.38;;
53867;SDS011;41577;47.470;19.080;2022-08-21T00:57:51;2.83;;;1.45;;
53867;SDS011;41577;47.470;19.080;2022-08-21T00:58:08;3.05;;;1.50;;
53867;SDS011;41577;47.470;19.080;2022-08-21T00:58:25;3.90;;;1.88;;
53867;SDS011;41577;47.470;19.080;2022-08-21T00:58:42;1.83;;;1.70;;
53867;SDS011;41577;47.470;19.080;2022-08-21T00:58:56;1.60;;;1.50;;
53867;SDS011;41577;47.470;19.080;2022-08-21T00:59:12;1.80;;;1.55;;
53867;SDS011;41577;47.470;19.080;2022-08-21T00:59:27;2.97;;;1.50;;
53867;SDS011;41577;47.470;19.080;2022-08-21T00:59:46;1.30;;;1.20;;
53867;SDS011;41577;47.470;19.080;2022-08-21T01:00:06;1.38;;;1.27;;
53867;SDS011;41577;47.470;19.080;2022-08-21T01:00:27;1.75;;;1.65;;
53867;SDS011;41577;47.470;19.080;2022-08-21T01:00:44;1.77;;;1.50;;
53867;SDS011;41577;47.470;19.080;2022-08-21T01:01:01;2.00;;;1.40;;
53867;SDS011;41577;47.470;19.080;2022-08-21T01:01:19;1.65;;;1.45;;
53867;SDS011;41577;47.470;19.080;2022-08-21T01:01:33;1.50;;;1.40;;
53867;SDS011;41577;47.470;19.080;2022-08-21T01:01:49;1.50;;;1.40;;
53867;SDS011;41577;47.470;19.080;2022-08-21T01:02:06;1.70;;;1.50;;
53867;SDS011;41577;47.470;19.080;2022-08-21T01:02:23;2.90;;;1.55;;
53867;SDS011;41577;47.470;19.080;2022-08-21T01:02:39;3.50;;;1.65;;
53867;SDS011;41577;47.470;19.080;2022-08-21T01:02:53;2.08;;;1.55;;
53867;SDS011;41577;47.470;19.080;2022-08-21T01:03:10;1.70;;;1.60;;
53867;SDS011;41577;47.470;19.080;2022-08-21T01:03:27;1.90;;;1.80;;
53867;SDS011;41577;47.470;19.080;2022-08-21T01:03:44;2.00;;;1.60;;
53867;SDS011;41577;47.470;19.080;2022-08-21T01:03:59;1.38;;;1.27;;
53867;SDS011;41577;47.470;19.080;2022-08-21T01:04:14;1.77;;;1.35;;
53867;SDS011;41577;47.470;19.080;2022-08-21T01:04:29;2.30;;;1.45;;
53867;SDS011;41577;47.470;19.080;2022-08-21T01:04:43;1.83;;;1.50;;
53867;SDS011;41577;47.470;19.080;2022-08-21T01:04:58;2.75;;;1.67;;
53867;SDS011;41577;47.470;19.080;2022-08-21T01:05:12;2.40;;;1.50;;
53867;SDS011;41577;47.470;19.080;2022-08-21T01:05:28;1.63;;;1.52;;
53867;SDS011;41577;47.470;19.080;2022-08-21T01:05:42;3.03;;;1.83;;
53867;SDS011;41577;47.470;19.080;2022-08-21T01:05:57;3.40;;;1.95;;
53867;SDS011;41577;47.470;19.080;2022-08-21T01:06:11;1.77;;;1.67;;
53867;SDS011;41577;47.470;19.080;2022-08-21T01:06:27;1.52;;;1.42;;
53867;SDS011;41577;47.470;19.080;2022-08-21T01:06:42;1.60;;;1.50;;
53867;SDS011;41577;47.470;19.080;2022-08-21T01:06:59;2.42;;;1.60;;
53867;SDS011;41577;47.470;19.080;2022-08-21T01:07:13;2.60;;;1.50;;
53867;SDS011;41577;47.470;19.080;2022-08-21T01:07:28;1.80;;;1.58;;
53867;SDS011;41577;47.470;19.080;2022-08-21T01:07:43;2.00;;;1.70;;
53867;SDS011;41577;47.470;19.080;2022-08-21T01:07:58;2.05;;;1.60;;
53867;SDS011;41577;47.470;19.080;2022-08-21T01:08:13;2.20;;;1.50;;
53867;SDS011;41577;47.470;19.080;2022-08-21T01:08:30;1.55;;;1.45;;
53867;SDS011;41577;47.470;19.080;2022-08-21T01:08:44;1.70;;;1.52;;
53867;SDS011;41577;47.470;19.080;2022-08-21T01:09:00;3.95;;;1.67;;
53867;SDS011;41577;47.470;19.080;2022-08-21T01:09:15;3.60;;;1.52;;
53867;SDS011;41577;47.470;19.080;2022-08-21T01:09:31;2.75;;;1.48;;
53867;SDS011;41577;47.470;19.080;2022-08-21T01:09:46;3.33;;;1.80;;
53867;SDS011;41577;47.470;19.080;2022-08-21T01:10:04;1.98;;;1.60;;
53867;SDS011;41577;47.470;19.080;2022-08-21T01:10:19;1.70;;;1.52;;
53867;SDS011;41577;47.470;19.080;2022-08-21T01:10:35;3.00;;;2.00;;
53867;SDS011;41577;47.470;19.080;2022-08-21T01:10:52;2.38;;;1.98;;
53867;SDS011;41577;47.470;19.080;2022-08-21T01:11:12;2.30;;;1.80;;
53867;SDS011;41577;47.470;19.080;2022-08-21T01:11:26;3.58;;;2.40;;
53867;SDS011;41577;47.470;19.080;2022-08-21T01:11:41;6.60;;;2.45;;
53867;SDS011;41577;47.470;19.080;2022-08-21T01:11:57;4.95;;;2.03;;
53867;SDS011;41577;47.470;19.080;2022-08-21T01:12:13;2.30;;;2.10;;
53867;SDS011;41577;47.470;19.080;2022-08-21T01:12:28;3.38;;;2.00;;
53867;SDS011;41577;47.470;19.080;2022-08-21T01:12:44;3.40;;;1.58;;
53867;SDS011;41577;47.470;19.080;2022-08-21T01:12:59;2.63;;;1.58;;
53867;SDS011;41577;47.470;19.080;2022-08-21T01:13:13;3.65;;;1.70;;
53867;SDS011;41577;47.470;19.080;2022-08-21T01:13:34;4.75;;;2.20;;
53867;SDS011;41577;47.470;19.080;2022-08-21T01:13:51;4.22;;;2.47;;
53867;SDS011;41577;47.470;19.080;2022-08-21T01:14:06;3.45;;;2.13;;
53867;SDS011;41577;47.470;19.080;2022-08-21T01:14:21;2.05;;;1.88;;
53867;SDS011;41577;47.470;19.080;2022-08-21T01:14:36;3.70;;;1.90;;
53867;SDS011;41577;47.470;19.080;2022-08-21T01:14:52;3.30;;;1.90;;
53867;SDS011;41577;47.470;19.080;2022-08-21T01:15:09;1.85;;;1.75;;
53867;SDS011;41577;47.470;19.080;2022-08-21T01:15:26;1.65;;;1.55;;
53867;SDS011;41577;47.470;19.080;2022-08-21T01:15:45;2.53;;;1.52;;
53867;SDS011;41577;47.470;19.080;2022-08-21T01:16:02;2.65;;;1.75;;
53867;SDS011;41577;47.470;19.080;2022-08-21T01:16:19;5.18;;;1.77;;
53867;SDS011;41577;47.470;19.080;2022-08-21T01:16:35;4.80;;;1.73;;
53867;SDS011;41577;47.470;19.080;2022-08-21T01:16:51;2.22;;;1.67;;
53867;SDS011;41577;47.470;19.080;2022-08-21T01:17:05;1.83;;;1.60;;
53867;SDS011;41577;47.470;19.080;2022-08-21T01:17:21;2.53;;;1.45;;
53867;SDS011;41577;47.470;19.080;2022-08-21T01:17:37;4.18;;;1.70;;
53867;SDS011;41577;47.470;19.080;2022-08-21T01:17:51;4.10;;;2.20;;
53867;SDS011;41577;47.470;19.080;2022-08-21T01:18:09;2.25;;;2.08;;
53867;SDS011;41577;47.470;19.080;2022-08-21T01:18:28;3.25;;;1.90;;
53867;SDS011;41577;47.470;19.080;2022-08-21T01:18:44;3.50;;;1.80;;
53867;SDS011;41577;47.470;19.080;2022-08-21T01:19:00;1.95;;;1.40;;
53867;SDS011;41577;47.470;19.080;2022-08-21T01:19:17;2.13;;;1.50;;
53867;SDS011;41577;47.470;19.080;2022-08-21T01:19:34;2.90;;;1.60;;
53867;SDS011;41577;47.470;19.080;2022-08-21T01:19:48;2.63;;;1.42;;
53867;SDS011;41577;47.470;19.080;2022-08-21T01:20:04;2.03;;;1.33;;
53867;SDS011;41577;47.470;19.080;2022-08-21T01:20:24;3.30;;;1.63;;
53867;SDS011;41577;47.470;19.080;2022-08-21T01:20:42;3.92;;;2.08;;
53867;SDS011;41577;47.470;19.080;2022-08-21T01:21:04;3.22;;;1.67;;
53867;SDS011;41577;47.470;19.080;2022-08-21T01:21:22;2.38;;;1.73;;
53867;SDS011;41577;47.470;19.080;2022-08-21T01:21:38;3.90;;;1.70;;
53867;SDS011;41577;47.470;19.080;2022-08-21T01:21:53;4.40;;;2.22;;
53867;SDS011;41577;47.470;19.080;2022-08-21T01:22:08;2.67;;;2.20;;
53867;SDS011;41577;47.470;19.080;2022-08-21T01:22:23;2.35;;;1.52;;
53867;SDS011;41577;47.470;19.080;2022-08-21T01:22:37;1.80;;;1.42;;
53867;SDS011;41577;47.470;19.080;2022-08-21T01:22:52;1.98;;;1.50;;
53867;SDS011;41577;47.470;19.080;2022-08-21T01:23:09;1.95;;;1.75;;
53867;SDS011;41577;47.470;19.080;2022-08-21T01:23:26;1.85;;;1.75;;
53867;SDS011;41577;47.470;19.080;2022-08-21T01:23:42;2.35;;;1.65;;
53867;SDS011;41577;47.470;19.080;2022-08-21T01:23:58;4.05;;;1.90;;
53867;SDS011;41577;47.470;19.080;2022-08-21T01:24:14;3.15;;;2.00;;
53867;SDS011;41577;47.470;19.080;2022-08-21T01:24:30;2.72;;;1.98;;
53867;SDS011;41577;47.470;19.080;2022-08-21T01:24:44;2.75;;;1.90;;
53867;SDS011;41577;47.470;19.080;2022-08-21T01:24:58;2.60;;;1.90;;
53867;SDS011;41577;47.470;19.080;2022-08-21T01:25:14;2.28;;;2.08;;
53867;SDS011;41577;47.470;19.080;2022-08-21T01:25:30;2.60;;;2.40;;
53867;SDS011;41577;47.470;19.080;2022-08-21T01:25:46;2.38;;;2.10;;
53867;SDS011;41577;47.470;19.080;2022-08-21T01:26:01;2.38;;;2.03;;
53867;SDS011;41577;47.470;19.080;2022-08-21T01:26:16;2.03;;;1.83;;
53867;SDS011;41577;47.470;19.080;2022-08-21T01:26:34;2.38;;;1.65;;
53867;SDS011;41577;47.470;19.080;2022-08-21T01:26:49;3.53;;;2.13;;
53867;SDS011;41577;47.470;19.080;2022-08-21T01:27:04;2.72;;;2.08;;
53867;SDS011;41577;47.470;19.080;2022-08-21T01:27:19;2.40;;;1.98;;
53867;SDS011;41577;47.470;19.080;2022-08-21T01:27:34;2.80;;;2.03;;
53867;SDS011;41577;47.470;19.080;2022-08-21T01:27:48;2.55;;;2.08;;
53867;SDS011;41577;47.470;19.080;2022-08-21T01:28:04;2.83;;;2.13;;
53867;SDS011;41577;47.470;19.080;2022-08-21T01:28:25;2.15;;;1.90;;
53867;SDS011;41577;47.470;19.080;2022-08-21T01:28:44;2.33;;;2.03;;
53867;SDS011;41577;47.470;19.080;2022-08-21T01:29:04;2.60;;;2.25;;
53867;SDS011;41577;47.470;19.080;2022-08-21T01:29:26;2.63;;;1.98;;
53867;SDS011;41577;47.470;19.080;2022-08-21T01:29:48;4.75;;;2.15;;
53867;SDS011;41577;47.470;19.080;2022-08-21T01:30:11;5.85;;;2.05;;
53867;SDS011;41577;47.470;19.080;2022-08-21T01:30:26;3.22;;;2.05;;
53867;SDS011;41577;47.470;19.080;2022-08-21T01:30:42;8.32;;;2.10;;
53867;SDS011;41577;47.470;19.080;2022-08-21T01:30:57;6.70;;;1.83;;
53867;SDS011;41577;47.470;19.080;2022-08-21T01:31:15;2.25;;;1.98;;
53867;SDS011;41577;47.470;19.080;2022-08-21T01:31:33;2.17;;;1.98;;
53867;SDS011;41577;47.470;19.080;2022-08-21T01:31:50;2.10;;;1.95;;
53867;SDS011;41577;47.470;19.080;2022-08-21T01:32:06;3.15;;;2.22;;
53867;SDS011;41577;47.470;19.080;2022-08-21T01:32:24;2.38;;;2.03;;
53867;SDS011;41577;47.470;19.080;2022-08-21T01:32:38;1.90;;;1.80;;
53867;SDS011;41577;47.470;19.080;2022-08-21T01:32:54;2.30;;;2.10;;
53867;SDS011;41577;47.470;19.080;2022-08-21T01:33:10;4.20;;;2.38;;
53867;SDS011;41577;47.470;19.080;2022-08-21T01:33:25;3.65;;;2.13;;
53867;SDS011;41577;47.470;19.080;2022-08-21T01:33:41;2.13;;;1.92;;